sensor_id;sensor_type;location;lat;lon;timestamp;P1;durP1;ratioP1;P2;durP2;ratioP2
25752;SDS011;13600;50.816;4.416;2024-01-16T00:00:31;17.85;;;5.75;;
25752;SDS011;13600;50.816;4.416;2024-01-16T00:02:57;25.48;;;6.50;;
25752;SDS011;13600;50.816;4.416;2024-01-16T00:05:23;16.70;;;6.05;;
25752;SDS011;13600;50.816;4.416;2024-01-16T00:07:48;17.63;;;6.50;;
25752;SDS011;13600;50.816;4.416;2024-01-16T00:10:14;19.80;;;6.45;;
25752;SDS011;13600;50.816;4.416;2024-01-16T00:12:40;16.52;;;6.18;;
25752;SDS011;13600;50.816;4.416;2024-01-16T00:15:06;24.17;;;6.32;;
25752;SDS011;13600;50.816;4.416;2024-01-16T00:17:34;25.85;;;6.97;;
25752;SDS011;13600;50.816;4.416;2024-01-16T00:20:00;19.95;;;6.68;;
25752;SDS011;13600;50.816;4.416;2024-01-16T00:22:29;22.27;;;6.32;;
25752;SDS011;13600;50.816;4.416;2024-01-16T00:24:54;22.70;;;7.20;;
25752;SDS011;13600;50.816;4.416;2024-01-16T00:27:20;19.55;;;6.25;;
25752;SDS011;13600;50.816;4.416;2024-01-16T00:29:46;15.88;;;6.65;;
25752;SDS011;13600;50.816;4.416;2024-01-16T00:32:12;25.00;;;6.45;;
25752;SDS011;13600;50.816;4.416;2024-01-16T00:34:41;18.75;;;5.65;;
25752;SDS011;13600;50.816;4.416;2024-01-16T00:37:07;18.00;;;5.53;;
25752;SDS011;13600;50.816;4.416;2024-01-16T00:39:33;24.48;;;7.03;;
25752;SDS011;13600;50.816;4.416;2024-01-16T00:41:58;25.23;;;6.88;;
25752;SDS011;13600;50.816;4.416;2024-01-16T00:44:24;21.98;;;5.53;;
25752;SDS011;13600;50.816;4.416;2024-01-16T00:46:50;13.25;;;5.93;;
25752;SDS011;13600;50.816;4.416;2024-01-16T00:49:16;16.10;;;5.57;;
25752;SDS011;13600;50.816;4.416;2024-01-16T00:51:41;17.17;;;6.03;;
25752;SDS011;13600;50.816;4.416;2024-01-16T00:54:07;20.75;;;5.20;;
25752;SDS011;13600;50.816;4.416;2024-01-16T00:56:33;22.05;;;5.82;;
25752;SDS011;13600;50.816;4.416;2024-01-16T00:59:01;16.15;;;5.82;;
25752;SDS011;13600;50.816;4.416;2024-01-16T01:01:27;24.73;;;6.07;;
25752;SDS011;13600;50.816;4.416;2024-01-16T01:03:52;19.27;;;5.53;;
25752;SDS011;13600;50.816;4.416;2024-01-16T01:06:19;13.48;;;4.80;;
25752;SDS011;13600;50.816;4.416;2024-01-16T01:08:45;18.77;;;6.00;;
25752;SDS011;13600;50.816;4.416;2024-01-16T01:11:11;24.00;;;6.00;;
25752;SDS011;13600;50.816;4.416;2024-01-16T01:13:37;19.60;;;6.20;;
25752;SDS011;13600;50.816;4.416;2024-01-16T01:16:03;16.08;;;5.85;;
25752;SDS011;13600;50.816;4.416;2024-01-16T01:18:29;13.93;;;5.22;;
25752;SDS011;13600;50.816;4.416;2024-01-16T01:20:54;15.85;;;6.03;;
25752;SDS011;13600;50.816;4.416;2024-01-16T01:23:21;18.67;;;5.93;;
25752;SDS011;13600;50.816;4.416;2024-01-16T01:25:46;14.88;;;5.57;;
25752;SDS011;13600;50.816;4.416;2024-01-16T01:28:12;17.30;;;5.80;;
25752;SDS011;13600;50.816;4.416;2024-01-16T01:30:38;18.92;;;6.32;;
25752;SDS011;13600;50.816;4.416;2024-01-16T01:33:04;25.63;;;6.78;;
25752;SDS011;13600;50.816;4.416;2024-01-16T01:35:30;21.70;;;6.00;;
25752;SDS011;13600;50.816;4.416;2024-01-16T01:37:56;13.55;;;5.93;;
25752;SDS011;13600;50.816;4.416;2024-01-16T01:40:21;19.33;;;5.65;;
25752;SDS011;13600;50.816;4.416;2024-01-16T01:42:47;12.57;;;5.45;;
25752;SDS011;13600;50.816;4.416;2024-01-16T01:45:13;16.42;;;6.10;;
25752;SDS011;13600;50.816;4.416;2024-01-16T01:47:39;14.70;;;5.50;;
25752;SDS011;13600;50.816;4.416;2024-01-16T01:50:07;17.63;;;5.30;;
25752;SDS011;13600;50.816;4.416;2024-01-16T01:52:34;18.05;;;5.25;;
25752;SDS011;13600;50.816;4.416;2024-01-16T01:55:01;11.65;;;4.32;;
25752;SDS011;13600;50.816;4.416;2024-01-16T01:57:28;11.82;;;5.40;;
25752;SDS011;13600;50.816;4.416;2024-01-16T01:59:55;12.82;;;4.53;;
25752;SDS011;13600;50.816;4.416;2024-01-16T02:02:20;25.58;;;5.53;;
25752;SDS011;13600;50.816;4.416;2024-01-16T02:04:47;12.57;;;5.30;;
25752;SDS011;13600;50.816;4.416;2024-01-16T02:07:13;16.25;;;5.90;;
25752;SDS011;13600;50.816;4.416;2024-01-16T02:09:40;13.60;;;5.07;;
25752;SDS011;13600;50.816;4.416;2024-01-16T02:12:06;14.00;;;5.15;;
25752;SDS011;13600;50.816;4.416;2024-01-16T02:14:32;11.70;;;5.18;;
25752;SDS011;13600;50.816;4.416;2024-01-16T02:16:58;15.50;;;5.43;;
25752;SDS011;13600;50.816;4.416;2024-01-16T02:19:23;17.00;;;5.65;;
25752;SDS011;13600;50.816;4.416;2024-01-16T02:21:52;17.25;;;5.20;;
25752;SDS011;13600;50.816;4.416;2024-01-16T02:24:23;26.30;;;5.73;;
25752;SDS011;13600;50.816;4.416;2024-01-16T02:26:49;15.23;;;5.55;;
25752;SDS011;13600;50.816;4.416;2024-01-16T02:29:14;14.73;;;4.70;;
25752;SDS011;13600;50.816;4.416;2024-01-16T02:31:41;15.35;;;4.75;;
25752;SDS011;13600;50.816;4.416;2024-01-16T02:34:07;13.68;;;4.97;;
25752;SDS011;13600;50.816;4.416;2024-01-16T02:36:34;14.27;;;4.90;;
25752;SDS011;13600;50.816;4.416;2024-01-16T02:38:59;16.33;;;5.45;;
25752;SDS011;13600;50.816;4.416;2024-01-16T02:41:26;17.00;;;5.28;;
25752;SDS011;13600;50.816;4.416;2024-01-16T02:43:51;21.10;;;4.82;;
25752;SDS011;13600;50.816;4.416;2024-01-16T02:46:18;14.95;;;4.40;;
25752;SDS011;13600;50.816;4.416;2024-01-16T02:48:47;17.58;;;5.30;;
25752;SDS011;13600;50.816;4.416;2024-01-16T02:51:13;18.48;;;4.85;;
25752;SDS011;13600;50.816;4.416;2024-01-16T02:53:40;21.92;;;5.03;;
25752;SDS011;13600;50.816;4.416;2024-01-16T02:56:07;23.33;;;5.43;;
25752;SDS011;13600;50.816;4.416;2024-01-16T02:58:33;15.52;;;5.22;;
25752;SDS011;13600;50.816;4.416;2024-01-16T03:00:59;14.82;;;4.88;;
25752;SDS011;13600;50.816;4.416;2024-01-16T03:03:24;17.52;;;5.65;;
25752;SDS011;13600;50.816;4.416;2024-01-16T03:05:51;17.98;;;5.28;;
25752;SDS011;13600;50.816;4.416;2024-01-16T03:08:17;15.35;;;5.30;;
25752;SDS011;13600;50.816;4.416;2024-01-16T03:10:43;16.02;;;5.35;;
25752;SDS011;13600;50.816;4.416;2024-01-16T03:13:09;11.65;;;5.18;;
25752;SDS011;13600;50.816;4.416;2024-01-16T03:15:35;11.55;;;4.82;;
25752;SDS011;13600;50.816;4.416;2024-01-16T03:18:00;13.98;;;5.65;;
25752;SDS011;13600;50.816;4.416;2024-01-16T03:20:27;18.52;;;5.43;;
25752;SDS011;13600;50.816;4.416;2024-01-16T03:22:53;16.30;;;5.00;;
25752;SDS011;13600;50.816;4.416;2024-01-16T03:25:19;15.38;;;4.95;;
25752;SDS011;13600;50.816;4.416;2024-01-16T03:27:45;16.92;;;5.13;;
25752;SDS011;13600;50.816;4.416;2024-01-16T03:30:10;15.60;;;4.82;;
25752;SDS011;13600;50.816;4.416;2024-01-16T03:32:37;17.70;;;5.65;;
25752;SDS011;13600;50.816;4.416;2024-01-16T03:35:03;16.05;;;4.60;;
25752;SDS011;13600;50.816;4.416;2024-01-16T03:37:30;19.60;;;5.22;;
25752;SDS011;13600;50.816;4.416;2024-01-16T03:39:55;14.48;;;4.85;;
25752;SDS011;13600;50.816;4.416;2024-01-16T03:42:22;17.80;;;5.00;;
25752;SDS011;13600;50.816;4.416;2024-01-16T03:44:48;15.77;;;5.35;;
25752;SDS011;13600;50.816;4.416;2024-01-16T03:47:14;19.50;;;5.10;;
25752;SDS011;13600;50.816;4.416;2024-01-16T03:49:40;12.13;;;4.50;;
25752;SDS011;13600;50.816;4.416;2024-01-16T03:52:05;17.90;;;5.57;;
25752;SDS011;13600;50.816;4.416;2024-01-16T03:54:31;17.17;;;5.65;;
25752;SDS011;13600;50.816;4.416;2024-01-16T03:56:57;20.65;;;6.30;;
25752;SDS011;13600;50.816;4.416;2024-01-16T03:59:22;16.63;;;5.68;;
25752;SDS011;13600;50.816;4.416;2024-01-16T04:01:48;17.20;;;6.00;;
25752;SDS011;13600;50.816;4.416;2024-01-16T04:04:15;17.00;;;5.60;;
25752;SDS011;13600;50.816;4.416;2024-01-16T04:06:41;16.10;;;5.60;;
25752;SDS011;13600;50.816;4.416;2024-01-16T04:09:07;20.40;;;6.47;;
25752;SDS011;13600;50.816;4.416;2024-01-16T04:11:34;16.90;;;5.63;;
25752;SDS011;13600;50.816;4.416;2024-01-16T04:14:00;14.70;;;5.88;;
25752;SDS011;13600;50.816;4.416;2024-01-16T04:16:26;19.60;;;5.97;;
25752;SDS011;13600;50.816;4.416;2024-01-16T04:18:52;18.80;;;5.55;;
25752;SDS011;13600;50.816;4.416;2024-01-16T04:21:18;17.30;;;6.72;;
25752;SDS011;13600;50.816;4.416;2024-01-16T04:23:44;17.92;;;5.82;;
25752;SDS011;13600;50.816;4.416;2024-01-16T04:26:09;15.07;;;6.32;;
25752;SDS011;13600;50.816;4.416;2024-01-16T04:28:35;19.83;;;6.10;;
25752;SDS011;13600;50.816;4.416;2024-01-16T04:31:05;17.67;;;7.05;;
25752;SDS011;13600;50.816;4.416;2024-01-16T04:33:30;17.90;;;6.28;;
25752;SDS011;13600;50.816;4.416;2024-01-16T04:35:57;14.23;;;6.18;;
25752;SDS011;13600;50.816;4.416;2024-01-16T04:38:23;20.27;;;6.43;;
25752;SDS011;13600;50.816;4.416;2024-01-16T04:40:49;15.77;;;6.05;;
25752;SDS011;13600;50.816;4.416;2024-01-16T04:43:15;21.73;;;6.95;;
25752;SDS011;13600;50.816;4.416;2024-01-16T04:45:40;17.17;;;6.32;;
25752;SDS011;13600;50.816;4.416;2024-01-16T04:48:06;29.83;;;6.75;;
25752;SDS011;13600;50.816;4.416;2024-01-16T04:50:33;21.08;;;5.63;;
25752;SDS011;13600;50.816;4.416;2024-01-16T04:52:59;21.75;;;6.20;;
25752;SDS011;13600;50.816;4.416;2024-01-16T04:55:26;16.95;;;6.25;;
25752;SDS011;13600;50.816;4.416;2024-01-16T04:57:52;16.70;;;6.05;;
25752;SDS011;13600;50.816;4.416;2024-01-16T05:00:19;17.67;;;5.93;;
25752;SDS011;13600;50.816;4.416;2024-01-16T05:02:45;18.00;;;6.30;;
25752;SDS011;13600;50.816;4.416;2024-01-16T05:05:11;16.85;;;5.80;;
25752;SDS011;13600;50.816;4.416;2024-01-16T05:07:37;19.45;;;6.00;;
25752;SDS011;13600;50.816;4.416;2024-01-16T05:10:03;19.80;;;6.18;;
25752;SDS011;13600;50.816;4.416;2024-01-16T05:12:29;14.27;;;5.97;;
25752;SDS011;13600;50.816;4.416;2024-01-16T05:14:55;13.93;;;5.43;;
25752;SDS011;13600;50.816;4.416;2024-01-16T05:17:21;14.25;;;6.15;;
25752;SDS011;13600;50.816;4.416;2024-01-16T05:19:46;20.85;;;5.72;;
25752;SDS011;13600;50.816;4.416;2024-01-16T05:22:12;22.67;;;5.82;;
25752;SDS011;13600;50.816;4.416;2024-01-16T05:24:37;15.10;;;5.95;;
25752;SDS011;13600;50.816;4.416;2024-01-16T05:27:03;20.33;;;5.50;;
25752;SDS011;13600;50.816;4.416;2024-01-16T05:29:34;20.27;;;6.13;;
25752;SDS011;13600;50.816;4.416;2024-01-16T05:32:02;20.00;;;6.15;;
25752;SDS011;13600;50.816;4.416;2024-01-16T05:34:28;18.17;;;5.97;;
25752;SDS011;13600;50.816;4.416;2024-01-16T05:36:55;16.40;;;6.35;;
25752;SDS011;13600;50.816;4.416;2024-01-16T05:39:21;17.40;;;6.05;;
25752;SDS011;13600;50.816;4.416;2024-01-16T05:41:47;19.30;;;6.32;;
25752;SDS011;13600;50.816;4.416;2024-01-16T05:44:12;21.85;;;6.50;;
25752;SDS011;13600;50.816;4.416;2024-01-16T05:46:38;23.67;;;6.95;;
25752;SDS011;13600;50.816;4.416;2024-01-16T05:49:03;17.27;;;6.90;;
25752;SDS011;13600;50.816;4.416;2024-01-16T05:51:29;17.05;;;5.63;;
25752;SDS011;13600;50.816;4.416;2024-01-16T05:53:55;17.52;;;6.40;;
25752;SDS011;13600;50.816;4.416;2024-01-16T05:56:22;21.13;;;6.78;;
25752;SDS011;13600;50.816;4.416;2024-01-16T05:58:47;23.58;;;6.65;;
25752;SDS011;13600;50.816;4.416;2024-01-16T06:01:13;16.52;;;6.05;;
25752;SDS011;13600;50.816;4.416;2024-01-16T06:03:39;21.35;;;6.72;;
25752;SDS011;13600;50.816;4.416;2024-01-16T06:06:05;20.30;;;6.50;;
25752;SDS011;13600;50.816;4.416;2024-01-16T06:08:32;17.55;;;6.28;;
25752;SDS011;13600;50.816;4.416;2024-01-16T06:10:58;23.95;;;6.13;;
25752;SDS011;13600;50.816;4.416;2024-01-16T06:13:24;19.50;;;5.78;;
25752;SDS011;13600;50.816;4.416;2024-01-16T06:15:49;16.00;;;5.90;;
25752;SDS011;13600;50.816;4.416;2024-01-16T06:18:15;13.00;;;5.78;;
25752;SDS011;13600;50.816;4.416;2024-01-16T06:20:41;17.42;;;6.45;;
25752;SDS011;13600;50.816;4.416;2024-01-16T06:23:06;19.40;;;7.40;;
25752;SDS011;13600;50.816;4.416;2024-01-16T06:25:32;22.02;;;7.93;;
25752;SDS011;13600;50.816;4.416;2024-01-16T06:27:57;17.02;;;6.60;;
25752;SDS011;13600;50.816;4.416;2024-01-16T06:30:23;12.18;;;6.65;;
25752;SDS011;13600;50.816;4.416;2024-01-16T06:32:49;18.83;;;6.57;;
25752;SDS011;13600;50.816;4.416;2024-01-16T06:35:15;17.05;;;6.55;;
25752;SDS011;13600;50.816;4.416;2024-01-16T06:37:41;18.85;;;7.20;;
25752;SDS011;13600;50.816;4.416;2024-01-16T06:40:07;14.32;;;6.40;;
25752;SDS011;13600;50.816;4.416;2024-01-16T06:42:34;23.85;;;7.13;;
25752;SDS011;13600;50.816;4.416;2024-01-16T06:45:01;23.20;;;6.47;;
25752;SDS011;13600;50.816;4.416;2024-01-16T06:47:27;19.08;;;6.88;;
25752;SDS011;13600;50.816;4.416;2024-01-16T06:49:53;17.88;;;6.53;;
25752;SDS011;13600;50.816;4.416;2024-01-16T06:52:19;18.55;;;6.20;;
25752;SDS011;13600;50.816;4.416;2024-01-16T06:54:44;18.35;;;6.25;;
25752;SDS011;13600;50.816;4.416;2024-01-16T06:57:10;19.08;;;6.90;;
25752;SDS011;13600;50.816;4.416;2024-01-16T06:59:36;19.08;;;6.32;;
25752;SDS011;13600;50.816;4.416;2024-01-16T07:02:02;18.92;;;6.38;;
25752;SDS011;13600;50.816;4.416;2024-01-16T07:04:28;22.27;;;7.18;;
25752;SDS011;13600;50.816;4.416;2024-01-16T07:06:54;17.63;;;6.35;;
25752;SDS011;13600;50.816;4.416;2024-01-16T07:09:20;21.90;;;6.40;;
25752;SDS011;13600;50.816;4.416;2024-01-16T07:11:46;20.98;;;6.63;;
25752;SDS011;13600;50.816;4.416;2024-01-16T07:14:12;19.45;;;6.40;;
25752;SDS011;13600;50.816;4.416;2024-01-16T07:16:38;20.33;;;6.18;;
25752;SDS011;13600;50.816;4.416;2024-01-16T07:19:04;21.73;;;6.15;;
25752;SDS011;13600;50.816;4.416;2024-01-16T07:21:29;20.58;;;6.78;;
25752;SDS011;13600;50.816;4.416;2024-01-16T07:23:55;16.55;;;5.72;;
25752;SDS011;13600;50.816;4.416;2024-01-16T07:26:21;18.77;;;6.25;;
25752;SDS011;13600;50.816;4.416;2024-01-16T07:28:48;26.77;;;6.78;;
25752;SDS011;13600;50.816;4.416;2024-01-16T07:31:14;15.93;;;6.20;;
25752;SDS011;13600;50.816;4.416;2024-01-16T07:33:41;22.20;;;6.70;;
25752;SDS011;13600;50.816;4.416;2024-01-16T07:36:08;13.85;;;6.03;;
25752;SDS011;13600;50.816;4.416;2024-01-16T07:38:34;13.45;;;6.18;;
25752;SDS011;13600;50.816;4.416;2024-01-16T07:41:01;18.08;;;6.28;;
25752;SDS011;13600;50.816;4.416;2024-01-16T07:43:27;18.40;;;6.90;;
25752;SDS011;13600;50.816;4.416;2024-01-16T07:45:52;17.67;;;6.22;;
25752;SDS011;13600;50.816;4.416;2024-01-16T07:48:18;17.35;;;6.38;;
25752;SDS011;13600;50.816;4.416;2024-01-16T07:50:44;22.13;;;6.25;;
25752;SDS011;13600;50.816;4.416;2024-01-16T07:53:11;23.50;;;6.43;;
25752;SDS011;13600;50.816;4.416;2024-01-16T07:55:37;19.50;;;6.53;;
25752;SDS011;13600;50.816;4.416;2024-01-16T07:58:03;17.55;;;5.40;;
25752;SDS011;13600;50.816;4.416;2024-01-16T08:00:30;16.63;;;6.20;;
25752;SDS011;13600;50.816;4.416;2024-01-16T08:02:55;17.10;;;6.45;;
25752;SDS011;13600;50.816;4.416;2024-01-16T08:05:21;18.35;;;7.15;;
25752;SDS011;13600;50.816;4.416;2024-01-16T08:07:50;18.75;;;6.30;;
25752;SDS011;13600;50.816;4.416;2024-01-16T08:10:16;17.50;;;5.90;;
25752;SDS011;13600;50.816;4.416;2024-01-16T08:12:42;21.67;;;7.05;;
25752;SDS011;13600;50.816;4.416;2024-01-16T08:15:08;21.23;;;6.43;;
25752;SDS011;13600;50.816;4.416;2024-01-16T08:17:34;16.75;;;6.25;;
25752;SDS011;13600;50.816;4.416;2024-01-16T08:20:00;18.15;;;5.93;;
25752;SDS011;13600;50.816;4.416;2024-01-16T08:22:26;14.93;;;5.95;;
25752;SDS011;13600;50.816;4.416;2024-01-16T08:24:51;21.33;;;5.95;;
25752;SDS011;13600;50.816;4.416;2024-01-16T08:27:18;16.75;;;6.00;;
25752;SDS011;13600;50.816;4.416;2024-01-16T08:29:46;14.60;;;5.72;;
25752;SDS011;13600;50.816;4.416;2024-01-16T08:32:15;15.80;;;5.13;;
25752;SDS011;13600;50.816;4.416;2024-01-16T08:34:42;14.00;;;5.30;;
25752;SDS011;13600;50.816;4.416;2024-01-16T08:37:08;15.68;;;5.60;;
25752;SDS011;13600;50.816;4.416;2024-01-16T08:39:34;20.27;;;5.35;;
25752;SDS011;13600;50.816;4.416;2024-01-16T08:42:00;16.90;;;5.82;;
25752;SDS011;13600;50.816;4.416;2024-01-16T08:44:27;14.07;;;5.10;;
25752;SDS011;13600;50.816;4.416;2024-01-16T08:46:53;19.70;;;7.30;;
25752;SDS011;13600;50.816;4.416;2024-01-16T08:49:19;15.73;;;5.30;;
25752;SDS011;13600;50.816;4.416;2024-01-16T08:51:45;16.30;;;5.40;;
25752;SDS011;13600;50.816;4.416;2024-01-16T08:54:10;17.02;;;5.22;;
25752;SDS011;13600;50.816;4.416;2024-01-16T08:56:36;16.58;;;4.95;;
25752;SDS011;13600;50.816;4.416;2024-01-16T08:59:02;12.23;;;4.88;;
25752;SDS011;13600;50.816;4.416;2024-01-16T09:01:28;18.20;;;4.95;;
25752;SDS011;13600;50.816;4.416;2024-01-16T09:03:53;11.32;;;4.57;;
25752;SDS011;13600;50.816;4.416;2024-01-16T09:06:19;14.25;;;4.43;;
25752;SDS011;13600;50.816;4.416;2024-01-16T09:08:44;10.15;;;4.32;;
25752;SDS011;13600;50.816;4.416;2024-01-16T09:11:10;15.18;;;4.60;;
25752;SDS011;13600;50.816;4.416;2024-01-16T09:13:36;13.73;;;4.47;;
25752;SDS011;13600;50.816;4.416;2024-01-16T09:16:05;12.32;;;5.32;;
25752;SDS011;13600;50.816;4.416;2024-01-16T09:18:30;14.40;;;4.82;;
25752;SDS011;13600;50.816;4.416;2024-01-16T09:20:56;11.05;;;5.18;;
25752;SDS011;13600;50.816;4.416;2024-01-16T09:23:22;14.80;;;4.45;;
25752;SDS011;13600;50.816;4.416;2024-01-16T09:25:48;11.90;;;5.30;;
25752;SDS011;13600;50.816;4.416;2024-01-16T09:28:15;14.05;;;4.30;;
25752;SDS011;13600;50.816;4.416;2024-01-16T09:30:41;15.80;;;4.88;;
25752;SDS011;13600;50.816;4.416;2024-01-16T09:33:08;15.80;;;4.47;;
25752;SDS011;13600;50.816;4.416;2024-01-16T09:35:35;12.95;;;3.92;;
25752;SDS011;13600;50.816;4.416;2024-01-16T09:38:01;10.82;;;4.13;;
25752;SDS011;13600;50.816;4.416;2024-01-16T09:40:27;10.45;;;4.57;;
25752;SDS011;13600;50.816;4.416;2024-01-16T09:42:52;10.77;;;4.78;;
25752;SDS011;13600;50.816;4.416;2024-01-16T09:45:21;16.00;;;4.65;;
25752;SDS011;13600;50.816;4.416;2024-01-16T09:47:47;16.13;;;4.00;;
25752;SDS011;13600;50.816;4.416;2024-01-16T09:50:16;12.30;;;4.47;;
25752;SDS011;13600;50.816;4.416;2024-01-16T09:52:46;10.93;;;4.18;;
25752;SDS011;13600;50.816;4.416;2024-01-16T09:55:12;15.00;;;4.32;;
25752;SDS011;13600;50.816;4.416;2024-01-16T09:57:42;10.75;;;4.20;;
25752;SDS011;13600;50.816;4.416;2024-01-16T10:00:11;14.27;;;4.45;;
25752;SDS011;13600;50.816;4.416;2024-01-16T10:02:40;13.45;;;5.47;;
25752;SDS011;13600;50.816;4.416;2024-01-16T10:05:07;13.60;;;4.38;;
25752;SDS011;13600;50.816;4.416;2024-01-16T10:07:35;17.50;;;4.85;;
25752;SDS011;13600;50.816;4.416;2024-01-16T10:10:03;12.75;;;4.50;;
25752;SDS011;13600;50.816;4.416;2024-01-16T10:12:29;14.27;;;4.57;;
25752;SDS011;13600;50.816;4.416;2024-01-16T10:14:56;11.82;;;4.55;;
25752;SDS011;13600;50.816;4.416;2024-01-16T10:17:21;12.25;;;4.18;;
25752;SDS011;13600;50.816;4.416;2024-01-16T10:19:49;14.00;;;4.60;;
25752;SDS011;13600;50.816;4.416;2024-01-16T10:22:20;11.63;;;4.38;;
25752;SDS011;13600;50.816;4.416;2024-01-16T10:27:38;17.08;;;4.20;;
25752;SDS011;13600;50.816;4.416;2024-01-16T10:30:05;14.70;;;4.47;;
25752;SDS011;13600;50.816;4.416;2024-01-16T10:32:33;16.20;;;4.65;;
25752;SDS011;13600;50.816;4.416;2024-01-16T10:40:23;16.83;;;4.35;;
25752;SDS011;13600;50.816;4.416;2024-01-16T10:42:58;12.10;;;4.60;;
25752;SDS011;13600;50.816;4.416;2024-01-16T10:45:32;12.85;;;4.68;;
25752;SDS011;13600;50.816;4.416;2024-01-16T10:48:01;15.52;;;5.50;;
25752;SDS011;13600;50.816;4.416;2024-01-16T10:50:28;12.20;;;4.35;;
25752;SDS011;13600;50.816;4.416;2024-01-16T10:52:54;18.15;;;4.93;;
25752;SDS011;13600;50.816;4.416;2024-01-16T10:55:23;20.73;;;5.18;;
25752;SDS011;13600;50.816;4.416;2024-01-16T10:57:49;16.23;;;4.93;;
25752;SDS011;13600;50.816;4.416;2024-01-16T11:00:17;12.52;;;4.90;;
25752;SDS011;13600;50.816;4.416;2024-01-16T11:03:06;17.13;;;4.93;;
25752;SDS011;13600;50.816;4.416;2024-01-16T11:05:31;19.90;;;5.20;;
25752;SDS011;13600;50.816;4.416;2024-01-16T11:07:59;14.48;;;5.40;;
25752;SDS011;13600;50.816;4.416;2024-01-16T11:10:29;13.18;;;4.30;;
25752;SDS011;13600;50.816;4.416;2024-01-16T11:12:55;21.30;;;5.05;;
25752;SDS011;13600;50.816;4.416;2024-01-16T11:15:26;15.60;;;5.13;;
25752;SDS011;13600;50.816;4.416;2024-01-16T11:17:53;10.98;;;4.35;;
25752;SDS011;13600;50.816;4.416;2024-01-16T11:20:20;16.30;;;6.28;;
25752;SDS011;13600;50.816;4.416;2024-01-16T11:22:46;16.73;;;4.72;;
25752;SDS011;13600;50.816;4.416;2024-01-16T11:25:14;12.13;;;4.40;;
25752;SDS011;13600;50.816;4.416;2024-01-16T11:27:42;12.60;;;4.80;;
25752;SDS011;13600;50.816;4.416;2024-01-16T11:30:09;13.18;;;4.95;;
25752;SDS011;13600;50.816;4.416;2024-01-16T11:35:08;12.90;;;5.28;;
25752;SDS011;13600;50.816;4.416;2024-01-16T11:37:39;17.95;;;4.78;;
25752;SDS011;13600;50.816;4.416;2024-01-16T11:42:45;14.55;;;4.60;;
25752;SDS011;13600;50.816;4.416;2024-01-16T11:50:33;11.45;;;4.60;;
25752;SDS011;13600;50.816;4.416;2024-01-16T11:52:59;12.35;;;4.15;;
25752;SDS011;13600;50.816;4.416;2024-01-16T11:55:31;11.55;;;4.07;;
25752;SDS011;13600;50.816;4.416;2024-01-16T12:01:05;13.07;;;4.40;;
25752;SDS011;13600;50.816;4.416;2024-01-16T12:03:32;13.70;;;3.42;;
25752;SDS011;13600;50.816;4.416;2024-01-16T12:06:01;17.00;;;3.67;;
25752;SDS011;13600;50.816;4.416;2024-01-16T12:08:27;13.80;;;4.20;;
25752;SDS011;13600;50.816;4.416;2024-01-16T12:10:53;16.17;;;3.92;;
25752;SDS011;13600;50.816;4.416;2024-01-16T12:13:19;17.23;;;4.15;;
25752;SDS011;13600;50.816;4.416;2024-01-16T12:15:44;15.57;;;4.18;;
25752;SDS011;13600;50.816;4.416;2024-01-16T12:18:17;12.80;;;3.72;;
25752;SDS011;13600;50.816;4.416;2024-01-16T12:20:44;9.38;;;3.55;;
25752;SDS011;13600;50.816;4.416;2024-01-16T12:23:10;12.30;;;3.60;;
25752;SDS011;13600;50.816;4.416;2024-01-16T12:25:36;12.15;;;3.92;;
25752;SDS011;13600;50.816;4.416;2024-01-16T12:30:30;13.05;;;3.45;;
25752;SDS011;13600;50.816;4.416;2024-01-16T12:33:03;16.27;;;4.22;;
25752;SDS011;13600;50.816;4.416;2024-01-16T12:38:02;12.60;;;4.20;;
25752;SDS011;13600;50.816;4.416;2024-01-16T12:40:34;19.85;;;4.40;;
25752;SDS011;13600;50.816;4.416;2024-01-16T12:43:01;14.00;;;4.30;;
25752;SDS011;13600;50.816;4.416;2024-01-16T12:45:30;11.13;;;3.80;;
25752;SDS011;13600;50.816;4.416;2024-01-16T12:47:57;13.77;;;4.18;;
25752;SDS011;13600;50.816;4.416;2024-01-16T12:50:25;12.52;;;4.30;;
25752;SDS011;13600;50.816;4.416;2024-01-16T12:53:07;13.18;;;4.25;;
25752;SDS011;13600;50.816;4.416;2024-01-16T12:55:34;18.80;;;4.10;;
25752;SDS011;13600;50.816;4.416;2024-01-16T13:00:53;10.95;;;4.05;;
25752;SDS011;13600;50.816;4.416;2024-01-16T13:03:21;16.52;;;4.35;;
25752;SDS011;13600;50.816;4.416;2024-01-16T13:05:55;12.48;;;4.25;;
25752;SDS011;13600;50.816;4.416;2024-01-16T13:08:25;14.30;;;4.93;;
25752;SDS011;13600;50.816;4.416;2024-01-16T13:11:07;16.80;;;4.28;;
25752;SDS011;13600;50.816;4.416;2024-01-16T13:13:34;10.90;;;4.20;;
25752;SDS011;13600;50.816;4.416;2024-01-16T13:16:01;16.80;;;4.40;;
25752;SDS011;13600;50.816;4.416;2024-01-16T13:18:28;13.55;;;4.55;;
25752;SDS011;13600;50.816;4.416;2024-01-16T13:20:55;12.35;;;4.30;;
25752;SDS011;13600;50.816;4.416;2024-01-16T13:23:21;13.68;;;3.97;;
25752;SDS011;13600;50.816;4.416;2024-01-16T13:25:49;12.70;;;3.72;;
25752;SDS011;13600;50.816;4.416;2024-01-16T13:28:16;15.15;;;4.75;;
25752;SDS011;13600;50.816;4.416;2024-01-16T13:30:43;8.95;;;3.50;;
25752;SDS011;13600;50.816;4.416;2024-01-16T13:33:10;11.23;;;3.63;;
25752;SDS011;13600;50.816;4.416;2024-01-16T13:35:54;10.93;;;3.95;;
25752;SDS011;13600;50.816;4.416;2024-01-16T13:40:46;11.68;;;3.90;;
25752;SDS011;13600;50.816;4.416;2024-01-16T13:43:12;16.42;;;4.30;;
25752;SDS011;13600;50.816;4.416;2024-01-16T13:45:38;8.32;;;3.45;;
25752;SDS011;13600;50.816;4.416;2024-01-16T13:48:05;9.50;;;3.78;;
25752;SDS011;13600;50.816;4.416;2024-01-16T13:50:31;14.55;;;4.20;;
25752;SDS011;13600;50.816;4.416;2024-01-16T13:52:58;9.77;;;3.90;;
25752;SDS011;13600;50.816;4.416;2024-01-16T13:55:26;11.68;;;4.63;;
25752;SDS011;13600;50.816;4.416;2024-01-16T13:57:53;14.98;;;4.10;;
25752;SDS011;13600;50.816;4.416;2024-01-16T14:00:19;10.75;;;4.20;;
25752;SDS011;13600;50.816;4.416;2024-01-16T14:02:45;11.60;;;4.47;;
25752;SDS011;13600;50.816;4.416;2024-01-16T14:05:15;15.68;;;4.35;;
25752;SDS011;13600;50.816;4.416;2024-01-16T14:07:42;11.25;;;4.15;;
25752;SDS011;13600;50.816;4.416;2024-01-16T14:10:13;10.98;;;3.95;;
25752;SDS011;13600;50.816;4.416;2024-01-16T14:12:39;12.73;;;3.83;;
25752;SDS011;13600;50.816;4.416;2024-01-16T14:15:11;10.35;;;4.05;;
25752;SDS011;13600;50.816;4.416;2024-01-16T14:20:16;9.20;;;3.70;;
25752;SDS011;13600;50.816;4.416;2024-01-16T14:22:43;9.27;;;3.53;;
25752;SDS011;13600;50.816;4.416;2024-01-16T14:25:09;11.93;;;3.42;;
25752;SDS011;13600;50.816;4.416;2024-01-16T14:27:37;12.13;;;3.53;;
25752;SDS011;13600;50.816;4.416;2024-01-16T14:30:04;9.52;;;3.80;;
25752;SDS011;13600;50.816;4.416;2024-01-16T14:32:36;6.88;;;3.30;;
25752;SDS011;13600;50.816;4.416;2024-01-16T14:35:05;10.00;;;3.85;;
25752;SDS011;13600;50.816;4.416;2024-01-16T14:37:32;11.32;;;3.83;;
25752;SDS011;13600;50.816;4.416;2024-01-16T14:39:59;9.30;;;3.50;;
25752;SDS011;13600;50.816;4.416;2024-01-16T14:42:43;6.38;;;3.10;;
25752;SDS011;13600;50.816;4.416;2024-01-16T14:45:09;11.70;;;3.60;;
25752;SDS011;13600;50.816;4.416;2024-01-16T14:47:36;12.85;;;3.78;;
25752;SDS011;13600;50.816;4.416;2024-01-16T14:50:02;8.35;;;3.28;;
25752;SDS011;13600;50.816;4.416;2024-01-16T14:52:29;10.57;;;3.78;;
25752;SDS011;13600;50.816;4.416;2024-01-16T14:54:57;7.90;;;3.20;;
25752;SDS011;13600;50.816;4.416;2024-01-16T14:57:27;9.82;;;3.03;;
25752;SDS011;13600;50.816;4.416;2024-01-16T14:59:54;9.18;;;3.58;;
25752;SDS011;13600;50.816;4.416;2024-01-16T15:02:19;8.60;;;3.47;;
25752;SDS011;13600;50.816;4.416;2024-01-16T15:04:46;10.88;;;3.50;;
25752;SDS011;13600;50.816;4.416;2024-01-16T15:07:13;13.30;;;3.85;;